Time;durP1;ratioP1;P1;durP2;ratioP2;P2;SDS_P1;SDS_P2;PMS_P1;PMS_P2;Temp;Humidity;BMP_temperature;BMP_pressure;BME280_temperature;BME280_humidity;BME280_pressure;Samples;Min_cycle;Max_cycle;Signal;HPM_P1;HPM_P2
2022/06/08 00:00:31;;;;;;;;;;;;;;;20.79;nan;99123.50;4972782;28;20373;-85
2022/06/08 00:03:13;;;;;;;;;;;;;;;20.78;nan;99129.09;4972690;28;20004;-84
2022/06/08 00:05:38;;;;;;;;;;;;;;;20.72;nan;99130.78;4972620;28;20462;-84
2022/06/08 00:08:04;;;;;;;;;;;;;;;20.72;nan;99120.06;4972404;28;20004;-84
2022/06/08 00:10:29;;;;;;;;;;;;;;;20.62;nan;99119.72;4972787;28;19918;-85
2022/06/08 00:12:55;;;;;;;;;;;;;;;20.49;nan;99125.19;4972365;28;19964;-85
2022/06/08 00:15:20;;;;;;;;;;;;;;;20.43;nan;99132.25;4987627;28;19918;-84
2022/06/08 00:17:46;;;;;;;;;;;;;;;20.44;nan;99127.66;4972757;28;19979;-84
2022/06/08 00:20:12;;;;;;;;;;;;;;;20.44;nan;99123.13;4968404;28;19918;-84
2022/06/08 00:22:37;;;;;;;;;;;;;;;20.45;nan;99123.97;4972419;28;20321;-85
2022/06/08 00:25:04;;;;;;;;;;;;;;;20.26;nan;99122.22;4972270;28;20008;-84
2022/06/08 00:27:29;;;;;;;;;;;;;;;19.99;nan;99122.34;4972408;28;19917;-84
2022/06/08 00:29:55;;;;;;;;;;;;;;;19.76;nan;99119.38;4971970;28;19918;-83
2022/06/08 00:32:20;;;;;;;;;;;;;;;19.67;nan;99120.66;4972427;28;19918;-84
2022/06/08 00:34:45;;;;;;;;;;;;;;;19.70;nan;99119.38;4986837;28;19917;-85
2022/06/08 00:37:11;;;;;;;;;;;;;;;19.66;nan;99119.00;4987143;28;19922;-85
2022/06/08 00:39:36;;;;;;;;;;;;;;;19.59;nan;99112.84;4972451;28;20278;-84
2022/06/08 00:42:04;;;;;;;;;;;;;;;19.50;nan;99108.75;4972003;28;20397;-84
2022/06/08 00:44:33;;;;;;;;;;;;;;;19.47;nan;99103.81;4970842;28;20440;-85
2022/06/08 00:47:00;;;;;;;;;;;;;;;19.55;nan;99095.56;4971873;28;20441;-85
2022/06/08 00:49:26;;;;;;;;;;;;;;;19.61;nan;99095.53;4970412;28;19925;-85
2022/06/08 00:51:51;;;;;;;;;;;;;;;19.66;nan;99096.75;4969588;28;19918;-85
2022/06/08 00:54:23;;;;;;;;;;;;;;;19.73;nan;99097.56;4972215;28;19926;-85
2022/06/08 00:56:52;;;;;;;;;;;;;;;19.82;nan;99091.75;4971755;28;20012;-85
2022/06/08 00:59:17;;;;;;;;;;;;;;;19.88;nan;99090.91;4983858;28;19928;-85
2022/06/08 01:01:43;;;;;;;;;;;;;;;19.91;nan;99090.44;4970497;28;19922;-85
2022/06/08 01:04:11;;;;;;;;;;;;;;;19.86;nan;99087.59;4970443;28;19922;-84
2022/06/08 01:06:39;;;;;;;;;;;;;;;19.79;nan;99086.00;4987103;28;20040;-84
2022/06/08 01:09:10;;;;;;;;;;;;;;;19.79;nan;99080.66;4987265;28;20021;-84
2022/06/08 01:11:43;;;;;;;;;;;;;;;19.80;nan;99072.38;4971276;28;19991;-84
2022/06/08 01:14:16;;;;;;;;;;;;;;;19.75;nan;99080.25;4971133;28;19929;-84
2022/06/08 01:16:45;;;;;;;;;;;;;;;19.48;nan;99084.91;4972812;28;19922;-85
2022/06/08 01:19:11;;;;;;;;;;;;;;;19.31;nan;99080.19;4987667;28;19953;-85
2022/06/08 01:21:37;;;;;;;;;;;;;;;19.16;nan;99070.53;4995459;28;19925;-84
2022/06/08 01:24:16;;;;;;;;;;;;;;;19.06;nan;99082.69;4987919;28;19925;-84
2022/06/08 01:26:47;;;;;;;;;;;;;;;18.92;nan;99073.88;4987318;28;20038;-85
2022/06/08 01:29:13;;;;;;;;;;;;;;;18.92;nan;99078.41;4987431;28;19918;-85
2022/06/08 01:31:44;;;;;;;;;;;;;;;19.01;nan;99078.00;4972614;28;19918;-84
2022/06/08 01:34:28;;;;;;;;;;;;;;;19.09;nan;99068.91;4973143;28;19957;-84
2022/06/08 01:37:17;;;;;;;;;;;;;;;19.16;nan;99069.72;4971193;28;19918;-84
2022/06/08 01:39:43;;;;;;;;;;;;;;;19.26;nan;99070.13;4992084;28;19914;-85
2022/06/08 01:42:27;;;;;;;;;;;;;;;19.36;nan;99072.34;4992557;28;19929;-85
2022/06/08 01:45:28;;;;;;;;;;;;;;;19.43;nan;99071.31;4977048;28;20300;-84
2022/06/08 01:47:57;;;;;;;;;;;;;;;19.46;nan;99070.88;4965062;28;19914;-85
2022/06/08 01:50:31;;;;;;;;;;;;;;;19.41;nan;99072.53;4986128;28;19918;-85
2022/06/08 01:52:56;;;;;;;;;;;;;;;19.41;nan;99068.00;4975238;28;20042;-84
2022/06/08 01:55:34;;;;;;;;;;;;;;;19.38;nan;99072.97;4990758;28;20004;-84
2022/06/08 01:58:17;;;;;;;;;;;;;;;19.36;nan;99070.50;4975541;28;20021;-84
2022/06/08 02:00:44;;;;;;;;;;;;;;;19.34;nan;99071.72;4990463;28;19918;-84
2022/06/08 02:03:30;;;;;;;;;;;;;;;19.34;nan;99067.19;4990462;28;20000;-84
2022/06/08 02:06:00;;;;;;;;;;;;;;;19.35;nan;99065.34;4973362;28;20339;-84
2022/06/08 02:08:40;;;;;;;;;;;;;;;19.36;nan;99075.03;4975545;28;19922;-83
2022/06/08 02:11:08;;;;;;;;;;;;;;;19.38;nan;99068.41;4997147;28;20645;-83
2022/06/08 02:13:43;;;;;;;;;;;;;;;19.38;nan;99068.41;5004070;28;19918;-83
2022/06/08 02:16:16;;;;;;;;;;;;;;;19.35;nan;99063.50;4993073;28;19922;-82
2022/06/08 02:18:56;;;;;;;;;;;;;;;19.37;nan;99060.63;4995029;28;19918;-83
2022/06/08 02:21:34;;;;;;;;;;;;;;;19.37;nan;99065.97;4988264;28;19922;-82
2022/06/08 02:24:09;;;;;;;;;;;;;;;19.40;nan;99066.34;4988723;28;19925;-83
2022/06/08 02:26:46;;;;;;;;;;;;;;;19.42;nan;99064.31;4966104;28;19919;-84
2022/06/08 02:29:22;;;;;;;;;;;;;;;19.42;nan;99074.19;4970849;28;20367;-84
2022/06/08 02:34:27;;;;;;;;;;;;;;;19.43;nan;99065.94;4974708;28;19922;-83
2022/06/08 02:34:54;;;;;;;;;;;;;;;19.39;nan;99067.38;4972387;28;19918;-85
2022/06/08 02:37:23;;;;;;;;;;;;;;;19.26;nan;99064.78;4974973;28;20018;-84
2022/06/08 02:39:55;;;;;;;;;;;;;;;19.31;nan;99066.81;4973614;28;19972;-85
2022/06/08 02:42:25;;;;;;;;;;;;;;;19.27;nan;99070.91;4990085;28;19918;-84
2022/06/08 02:44:53;;;;;;;;;;;;;;;19.29;nan;99068.84;4989964;28;19973;-84
2022/06/08 02:47:30;;;;;;;;;;;;;;;19.28;nan;99067.22;5001674;28;19918;-84
2022/06/08 02:50:08;;;;;;;;;;;;;;;19.29;nan;99075.03;5003971;28;19999;-84
2022/06/08 02:52:36;;;;;;;;;;;;;;;19.28;nan;99084.09;4975829;28;19918;-84
2022/06/08 02:55:11;;;;;;;;;;;;;;;19.28;nan;99083.25;4976194;28;19918;-85
2022/06/08 02:57:40;;;;;;;;;;;;;;;19.28;nan;99088.63;4989222;28;19918;-84
2022/06/08 03:00:16;;;;;;;;;;;;;;;19.18;nan;99087.22;4989448;28;19918;-85
2022/06/08 03:02:44;;;;;;;;;;;;;;;18.97;nan;99092.78;4989687;28;19941;-84
2022/06/08 03:05:17;;;;;;;;;;;;;;;18.77;nan;99100.00;4985214;28;20001;-84
2022/06/08 03:07:45;;;;;;;;;;;;;;;18.74;nan;99097.75;4974610;28;19918;-84
2022/06/08 03:10:13;;;;;;;;;;;;;;;18.80;nan;99094.25;4989507;28;20008;-83
2022/06/08 03:12:41;;;;;;;;;;;;;;;18.81;nan;99104.72;4989638;28;19922;-85
2022/06/08 03:15:08;;;;;;;;;;;;;;;18.87;nan;99097.75;4973973;28;19992;-84
2022/06/08 03:17:35;;;;;;;;;;;;;;;18.90;nan;99097.34;4989820;28;19976;-84
2022/06/08 03:20:04;;;;;;;;;;;;;;;18.95;nan;99100.22;4988707;28;19968;-84
2022/06/08 03:22:31;;;;;;;;;;;;;;;18.92;nan;99105.97;4988934;28;20448;-85
2022/06/08 03:24:57;;;;;;;;;;;;;;;18.83;nan;99101.03;4972326;28;19985;-84
2022/06/08 03:27:23;;;;;;;;;;;;;;;18.66;nan;99105.97;4988833;28;20095;-84
2022/06/08 03:29:52;;;;;;;;;;;;;;;18.63;nan;99106.38;4988751;28;20020;-83
2022/06/08 03:32:18;;;;;;;;;;;;;;;18.63;nan;99107.19;4973782;28;19922;-82
2022/06/08 03:34:44;;;;;;;;;;;;;;;18.66;nan;99111.31;4984147;28;19918;-83
2022/06/08 03:37:10;;;;;;;;;;;;;;;18.54;nan;99112.94;4971682;28;19965;-84
2022/06/08 03:39:41;;;;;;;;;;;;;;;18.50;nan;99106.31;4988183;28;19914;-84
2022/06/08 03:42:06;;;;;;;;;;;;;;;18.53;nan;99108.59;4973040;28;19921;-84
2022/06/08 03:44:32;;;;;;;;;;;;;;;18.49;nan;99105.53;4971735;28;19914;-84
2022/06/08 03:47:01;;;;;;;;;;;;;;;18.50;nan;99107.16;4987408;28;19930;-83
2022/06/08 03:49:27;;;;;;;;;;;;;;;18.37;nan;99108.00;4972551;28;19925;-84
2022/06/08 03:51:54;;;;;;;;;;;;;;;18.37;nan;99099.16;4972368;28;19918;-84
2022/06/08 03:54:21;;;;;;;;;;;;;;;18.42;nan;99115.38;4972633;28;20252;-84
2022/06/08 03:56:49;;;;;;;;;;;;;;;18.50;nan;99117.84;4972651;28;19925;-83
2022/06/08 03:59:14;;;;;;;;;;;;;;;18.58;nan;99114.19;4972839;28;19918;-85
2022/06/08 04:01:40;;;;;;;;;;;;;;;18.64;nan;99118.72;4987835;28;19925;-84
2022/06/08 04:04:06;;;;;;;;;;;;;;;18.69;nan;99126.94;4987350;28;19948;-84
2022/06/08 04:06:32;;;;;;;;;;;;;;;18.76;nan;99128.59;4968306;28;19918;-84
2022/06/08 04:08:59;;;;;;;;;;;;;;;18.75;nan;99131.47;4970656;28;19918;-84
2022/06/08 04:11:26;;;;;;;;;;;;;;;18.73;nan;99134.31;4987667;28;20358;-85
2022/06/08 04:13:54;;;;;;;;;;;;;;;18.76;nan;99133.13;4987286;28;20374;-85
2022/06/08 04:16:21;;;;;;;;;;;;;;;18.75;nan;99126.13;4987415;28;19918;-85
2022/06/08 04:18:48;;;;;;;;;;;;;;;18.74;nan;99135.16;4987653;28;20144;-83
2022/06/08 04:21:14;;;;;;;;;;;;;;;18.70;nan;99131.25;4987268;28;20026;-84
2022/06/08 04:24:01;;;;;;;;;;;;;;;18.79;nan;99127.38;4971559;28;19949;-84
2022/06/08 04:26:28;;;;;;;;;;;;;;;18.75;nan;99126.13;4987560;28;20386;-85
2022/06/08 04:29:00;;;;;;;;;;;;;;;18.73;nan;99122.84;4970908;28;19918;-83
2022/06/08 04:31:26;;;;;;;;;;;;;;;18.76;nan;99119.75;4987253;28;19918;-84
2022/06/08 04:33:58;;;;;;;;;;;;;;;18.83;nan;99112.56;4986694;28;19921;-85
2022/06/08 04:36:30;;;;;;;;;;;;;;;18.91;nan;99112.31;4967824;28;19988;-84
2022/06/08 04:38:56;;;;;;;;;;;;;;;18.97;nan;99106.16;4970464;28;19945;-84
2022/06/08 04:41:22;;;;;;;;;;;;;;;19.08;nan;99102.03;4987029;28;19938;-84
2022/06/08 04:43:50;;;;;;;;;;;;;;;19.16;nan;99105.31;4970445;28;20013;-83
2022/06/08 04:46:17;;;;;;;;;;;;;;;19.27;nan;99105.69;4987117;28;19973;-84
2022/06/08 04:48:46;;;;;;;;;;;;;;;19.41;nan;99110.00;4970818;28;20289;-84
2022/06/08 04:51:14;;;;;;;;;;;;;;;19.49;nan;99115.97;4970882;28;19924;-84
2022/06/08 04:53:43;;;;;;;;;;;;;;;19.58;nan;99105.84;4988820;28;19988;-84
2022/06/08 04:56:09;;;;;;;;;;;;;;;19.62;nan;99107.06;4989082;28;19969;-85
2022/06/08 04:58:35;;;;;;;;;;;;;;;19.72;nan;99112.81;4988454;28;19918;-85
2022/06/08 05:01:01;;;;;;;;;;;;;;;19.82;nan;99107.00;4972452;28;19926;-85
2022/06/08 05:03:27;;;;;;;;;;;;;;;19.88;nan;99101.59;4988272;28;19918;-86
2022/06/08 05:05:53;;;;;;;;;;;;;;;20.00;nan;99099.91;4969489;28;19929;-84
2022/06/08 05:08:27;;;;;;;;;;;;;;;20.06;nan;99108.09;4987218;28;19918;-84
2022/06/08 05:10:53;;;;;;;;;;;;;;;20.21;nan;99103.25;4971593;28;19924;-83
2022/06/08 05:13:22;;;;;;;;;;;;;;;20.35;nan;99107.53;4987641;28;19961;-85
2022/06/08 05:15:54;;;;;;;;;;;;;;;20.40;nan;99105.84;4986746;28;20000;-85
2022/06/08 05:18:20;;;;;;;;;;;;;;;20.47;nan;99108.50;4987014;28;20006;-83
2022/06/08 05:20:47;;;;;;;;;;;;;;;20.54;nan;99106.59;4986111;28;19918;-77
2022/06/08 05:23:18;;;;;;;;;;;;;;;20.58;nan;99107.78;4990283;28;19918;-75
2022/06/08 05:25:49;;;;;;;;;;;;;;;20.57;nan;99116.88;4987294;28;19933;-75
2022/06/08 05:28:14;;;;;;;;;;;;;;;20.59;nan;99109.44;4989830;28;19918;-74
2022/06/08 05:30:49;;;;;;;;;;;;;;;20.60;nan;99121.81;4973763;28;19922;-75
2022/06/08 05:33:15;;;;;;;;;;;;;;;20.63;nan;99121.34;4973642;28;19934;-76
2022/06/08 05:35:41;;;;;;;;;;;;;;;20.63;nan;99120.53;4970914;28;19918;-77
2022/06/08 05:38:10;;;;;;;;;;;;;;;20.69;nan;99117.81;4988573;28;19929;-74
2022/06/08 05:40:37;;;;;;;;;;;;;;;20.73;nan;99127.06;4970604;28;19922;-73
2022/06/08 05:43:06;;;;;;;;;;;;;;;20.77;nan;99133.63;4970827;28;19918;-73
2022/06/08 05:45:32;;;;;;;;;;;;;;;20.74;nan;99123.34;4973822;28;19995;-73
2022/06/08 05:47:58;;;;;;;;;;;;;;;20.75;nan;99124.97;4986008;28;19960;-73
2022/06/08 05:50:25;;;;;;;;;;;;;;;20.79;nan;99126.16;4974395;28;19918;-74
2022/06/08 05:52:52;;;;;;;;;;;;;;;20.83;nan;99138.13;4984767;28;19966;-74
2022/06/08 05:55:19;;;;;;;;;;;;;;;20.88;nan;99140.16;4989986;28;20012;-74
2022/06/08 05:57:45;;;;;;;;;;;;;;;20.92;nan;99135.16;4975190;28;19918;-76
2022/06/08 06:00:13;;;;;;;;;;;;;;;21.06;nan;99144.75;4973718;28;19922;-75
2022/06/08 06:02:42;;;;;;;;;;;;;;;21.19;nan;99147.34;4974085;28;19925;-85
2022/06/08 06:05:11;;;;;;;;;;;;;;;21.30;nan;99149.28;4997325;28;20442;-82
2022/06/08 06:07:38;;;;;;;;;;;;;;;21.38;nan;99142.81;4972256;28;20298;-82
2022/06/08 06:10:19;;;;;;;;;;;;;;;21.45;nan;99144.38;4987845;28;19922;-78
2022/06/08 06:12:45;;;;;;;;;;;;;;;21.46;nan;99153.25;4989637;28;19927;-80
2022/06/08 06:15:13;;;;;;;;;;;;;;;21.45;nan;99144.38;4989109;28;19922;-81
2022/06/08 06:17:40;;;;;;;;;;;;;;;21.43;nan;99157.22;4977097;28;19927;-81
2022/06/08 06:20:06;;;;;;;;;;;;;;;21.40;nan;99160.31;4991575;28;19918;-79
2022/06/08 06:22:50;;;;;;;;;;;;;;;21.44;nan;99164.19;4971776;28;19964;-79
2022/06/08 06:25:35;;;;;;;;;;;;;;;21.53;nan;99170.13;4987137;28;19925;-81
2022/06/08 06:28:23;;;;;;;;;;;;;;;21.47;nan;99169.13;4974657;28;19922;-79
2022/06/08 06:31:16;;;;;;;;;;;;;;;21.42;nan;99162.81;4989344;28;20012;-80
2022/06/08 06:33:58;;;;;;;;;;;;;;;21.45;nan;99160.47;4972312;28;19929;-81
2022/06/08 06:36:24;;;;;;;;;;;;;;;21.45;nan;99157.78;4972820;28;19918;-79
2022/06/08 06:38:50;;;;;;;;;;;;;;;21.45;nan;99152.44;4989013;28;19917;-80
2022/06/08 06:41:17;;;;;;;;;;;;;;;21.44;nan;99153.47;4989203;28;20419;-80
2022/06/08 06:43:44;;;;;;;;;;;;;;;21.42;nan;99147.53;4989318;28;20008;-80
2022/06/08 06:46:21;;;;;;;;;;;;;;;21.43;nan;99143.78;4988991;28;20410;-80
2022/06/08 06:49:01;;;;;;;;;;;;;;;21.44;nan;99142.72;4971922;28;20279;-80
2022/06/08 06:51:26;;;;;;;;;;;;;;;21.49;nan;99136.72;4973519;28;19922;-79
2022/06/08 06:53:54;;;;;;;;;;;;;;;21.52;nan;99137.06;4988489;28;20282;-79
2022/06/08 06:56:19;;;;;;;;;;;;;;;21.55;nan;99142.00;4989484;28;19918;-80
2022/06/08 06:59:05;;;;;;;;;;;;;;;21.64;nan;99140.66;4978733;28;19921;-80
2022/06/08 07:01:31;;;;;;;;;;;;;;;21.77;nan;99144.25;4991581;28;20620;-78
2022/06/08 07:03:57;;;;;;;;;;;;;;;21.83;nan;99146.03;4973748;28;20020;-80
2022/06/08 07:06:23;;;;;;;;;;;;;;;21.83;nan;99148.72;4973965;28;19918;-80
2022/06/08 07:08:49;;;;;;;;;;;;;;;21.81;nan;99148.09;4990262;28;19925;-80
2022/06/08 07:11:35;;;;;;;;;;;;;;;21.84;nan;99156.56;4988639;28;19918;-80
2022/06/08 07:14:17;;;;;;;;;;;;;;;21.91;nan;99137.66;4977174;28;19922;-80
2022/06/08 07:16:45;;;;;;;;;;;;;;;21.97;nan;99150.22;4965806;28;19996;-80
2022/06/08 07:19:11;;;;;;;;;;;;;;;21.97;nan;99155.59;4961038;28;19914;-80
2022/06/08 07:21:37;;;;;;;;;;;;;;;22.01;nan;99152.25;4962957;28;20359;-80
2022/06/08 07:24:02;;;;;;;;;;;;;;;21.96;nan;99156.66;4962694;28;20783;-79
2022/06/08 07:26:28;;;;;;;;;;;;;;;21.97;nan;99147.56;4963462;28;19930;-80
2022/06/08 07:28:54;;;;;;;;;;;;;;;22.10;nan;99149.22;4964496;28;19925;-79
2022/06/08 07:31:20;;;;;;;;;;;;;;;22.22;nan;99145.53;4964754;28;20430;-80
2022/06/08 07:33:46;;;;;;;;;;;;;;;22.33;nan;99143.94;4965505;28;19918;-79
2022/06/08 07:36:11;;;;;;;;;;;;;;;22.38;nan;99147.56;4972504;28;20016;-80
2022/06/08 07:38:37;;;;;;;;;;;;;;;22.46;nan;99147.25;4973105;28;20025;-81
2022/06/08 07:41:03;;;;;;;;;;;;;;;22.48;nan;99144.34;4972727;28;19918;-80
2022/06/08 07:43:28;;;;;;;;;;;;;;;22.50;nan;99144.13;4972780;28;20012;-81
2022/06/08 07:45:53;;;;;;;;;;;;;;;22.56;nan;99137.84;4972035;28;19925;-81
2022/06/08 07:51:03;;;;;;;;;;;;;;;22.61;nan;99132.59;4972185;28;19918;-78
2022/06/08 07:53:28;;;;;;;;;;;;;;;22.65;nan;99131.06;4987396;28;20038;-80
2022/06/08 07:55:54;;;;;;;;;;;;;;;22.72;nan;99134.50;4987620;28;19925;-80
2022/06/08 07:58:20;;;;;;;;;;;;;;;22.80;nan;99134.97;4973550;28;19918;-80
2022/06/08 08:00:47;;;;;;;;;;;;;;;22.78;nan;99125.50;4973717;28;20374;-80
2022/06/08 08:03:13;;;;;;;;;;;;;;;22.81;nan;99119.66;4970669;28;19918;-80
2022/06/08 08:05:39;;;;;;;;;;;;;;;22.92;nan;99121.53;4972236;28;20024;-80
2022/06/08 08:08:06;;;;;;;;;;;;;;;23.04;nan;99114.28;4972191;28;19922;-79
2022/06/08 08:10:31;;;;;;;;;;;;;;;23.18;nan;99125.66;4972527;28;19977;-82
2022/06/08 08:12:56;;;;;;;;;;;;;;;23.27;nan;99114.28;4972079;28;19918;-81
2022/06/08 08:15:23;;;;;;;;;;;;;;;23.35;nan;99115.81;4972281;28;19918;-81
2022/06/08 08:17:49;;;;;;;;;;;;;;;23.38;nan;99109.97;4972113;28;19918;-81
2022/06/08 08:20:15;;;;;;;;;;;;;;;23.46;nan;99116.84;4972316;28;19924;-81
2022/06/08 08:22:40;;;;;;;;;;;;;;;23.45;nan;99115.19;4987058;28;19928;-81
2022/06/08 08:25:06;;;;;;;;;;;;;;;23.44;nan;99110.88;4971687;28;19937;-81
2022/06/08 08:27:32;;;;;;;;;;;;;;;23.39;nan;99108.88;4972089;28;19980;-80
2022/06/08 08:29:57;;;;;;;;;;;;;;;23.46;nan;99111.44;4971688;28;20386;-81
2022/06/08 08:32:22;;;;;;;;;;;;;;;23.46;nan;99108.75;4960345;28;19919;-81
2022/06/08 08:34:48;;;;;;;;;;;;;;;23.53;nan;99106.78;4961467;28;19922;-81
2022/06/08 08:37:13;;;;;;;;;;;;;;;23.66;nan;99107.38;4964142;28;19918;-81
2022/06/08 08:39:38;;;;;;;;;;;;;;;23.73;nan;99107.22;4961233;28;19914;-82
2022/06/08 08:42:20;;;;;;;;;;;;;;;23.80;nan;99097.09;4962858;28;19922;-81
2022/06/08 08:44:48;;;;;;;;;;;;;;;23.90;nan;99091.94;4959078;28;19914;-81
2022/06/08 08:47:14;;;;;;;;;;;;;;;23.99;nan;99098.56;4968554;28;19966;-80
2022/06/08 08:49:43;;;;;;;;;;;;;;;24.10;nan;99096.88;4976605;28;20061;-80
2022/06/08 08:52:14;;;;;;;;;;;;;;;24.21;nan;99097.94;4959122;28;19922;-80
2022/06/08 08:54:54;;;;;;;;;;;;;;;24.32;nan;99099.75;4963596;28;19929;-80
2022/06/08 08:57:23;;;;;;;;;;;;;;;24.31;nan;99103.50;4959053;28;19929;-81
2022/06/08 08:59:49;;;;;;;;;;;;;;;24.29;nan;99102.94;4959822;28;20282;-81
2022/06/08 09:03:14;;;;;;;;;;;;;;;24.33;nan;99101.38;4973950;28;19926;-79
2022/06/08 09:05:03;;;;;;;;;;;;;;;24.39;nan;99105.78;4962126;28;19929;-80
2022/06/08 09:07:29;;;;;;;;;;;;;;;24.47;nan;99100.00;4959096;28;19928;-80
2022/06/08 09:09:55;;;;;;;;;;;;;;;24.59;nan;99099.94;4959425;28;20375;-80
2022/06/08 09:12:20;;;;;;;;;;;;;;;24.64;nan;99098.16;4958915;28;19929;-79
2022/06/08 09:14:59;;;;;;;;;;;;;;;24.63;nan;99099.19;4959871;28;20436;-81
2022/06/08 09:17:36;;;;;;;;;;;;;;;24.69;nan;99097.41;4959737;28;19918;-81
2022/06/08 09:20:03;;;;;;;;;;;;;;;24.73;nan;99090.47;4961113;28;19969;-79
2022/06/08 09:22:31;;;;;;;;;;;;;;;24.74;nan;99092.91;4961508;28;19961;-81
2022/06/08 09:24:59;;;;;;;;;;;;;;;24.77;nan;99089.72;4959649;28;20339;-81
2022/06/08 09:27:26;;;;;;;;;;;;;;;24.82;nan;99089.81;4959829;28;19918;-79
2022/06/08 09:29:53;;;;;;;;;;;;;;;24.82;nan;99084.41;4974702;28;19925;-80
2022/06/08 09:32:26;;;;;;;;;;;;;;;24.83;nan;99082.53;4963064;28;19972;-82
2022/06/08 09:34:54;;;;;;;;;;;;;;;24.85;nan;99078.53;4962129;28;19957;-81
2022/06/08 09:37:24;;;;;;;;;;;;;;;24.82;nan;99081.72;4958634;28;19918;-82
2022/06/08 09:39:51;;;;;;;;;;;;;;;24.87;nan;99075.56;4958380;28;20098;-78
2022/06/08 09:42:19;;;;;;;;;;;;;;;24.91;nan;99065.97;4966302;28;19930;-75
2022/06/08 09:45:00;;;;;;;;;;;;;;;24.92;nan;99070.28;4958273;28;19957;-76
2022/06/08 09:53:17;;;;;;;;;;;;;;;25.12;nan;99053.56;4958705;28;19932;-77
2022/06/08 09:55:59;;;;;;;;;;;;;;;25.13;nan;99064.13;4973573;28;20343;-77
2022/06/08 09:58:35;;;;;;;;;;;;;;;25.15;nan;99044.97;4957456;28;19926;-75
2022/06/08 10:01:19;;;;;;;;;;;;;;;25.14;nan;99054.97;4958715;28;20058;-77
2022/06/08 10:03:47;;;;;;;;;;;;;;;25.09;nan;99056.78;4962690;28;19929;-77
2022/06/08 10:06:13;;;;;;;;;;;;;;;25.14;nan;99044.16;4966649;28;19994;-76
2022/06/08 10:08:50;;;;;;;;;;;;;;;25.21;nan;99044.78;4977480;28;20384;-76
2022/06/08 10:11:34;;;;;;;;;;;;;;;25.23;nan;99037.25;4968259;28;20602;-76
2022/06/08 10:14:12;;;;;;;;;;;;;;;25.26;nan;99030.53;4967822;28;19925;-75
2022/06/08 10:16:42;;;;;;;;;;;;;;;25.14;nan;99032.53;4973458;28;20358;-76
2022/06/08 10:19:10;;;;;;;;;;;;;;;25.13;nan;99033.59;4970935;28;19937;-76
2022/06/08 10:21:41;;;;;;;;;;;;;;;25.19;nan;99032.59;4968422;28;19925;-76
2022/06/08 10:24:24;;;;;;;;;;;;;;;25.20;nan;99034.25;4964022;28;20347;-76
2022/06/08 10:26:52;;;;;;;;;;;;;;;25.25;nan;99037.00;4965801;28;19922;-77
2022/06/08 10:29:18;;;;;;;;;;;;;;;25.24;nan;99032.66;4964198;28;20383;-76
2022/06/08 10:31:55;;;;;;;;;;;;;;;25.19;nan;99036.13;4963174;28;20005;-76
2022/06/08 10:34:22;;;;;;;;;;;;;;;25.22;nan;99029.41;4969680;28;19926;-75
2022/06/08 10:36:54;;;;;;;;;;;;;;;25.24;nan;99019.16;4977876;28;20454;-75
2022/06/08 10:39:20;;;;;;;;;;;;;;;25.23;nan;99026.44;4972175;28;19918;-77
2022/06/08 10:44:50;;;;;;;;;;;;;;;25.20;nan;99005.38;4965380;28;20008;-77
2022/06/08 10:47:21;;;;;;;;;;;;;;;25.20;nan;99010.75;4969256;28;19988;-77
2022/06/08 10:49:49;;;;;;;;;;;;;;;25.21;nan;99000.78;4968021;28;19981;-77
2022/06/08 10:52:17;;;;;;;;;;;;;;;25.25;nan;99001.91;4962932;28;20398;-78
2022/06/08 10:54:55;;;;;;;;;;;;;;;25.27;nan;98999.78;4965237;28;19917;-77
2022/06/08 10:57:41;;;;;;;;;;;;;;;25.29;nan;99000.31;4981672;28;19917;-77
2022/06/08 11:00:19;;;;;;;;;;;;;;;25.31;nan;98994.69;4964450;28;19977;-74
2022/06/08 11:02:48;;;;;;;;;;;;;;;25.42;nan;98991.03;4963492;28;20359;-77
2022/06/08 11:05:32;;;;;;;;;;;;;;;25.50;nan;98983.31;4967957;28;20016;-76
2022/06/08 11:08:01;;;;;;;;;;;;;;;25.53;nan;98982.78;4963225;28;19922;-76
2022/06/08 11:10:41;;;;;;;;;;;;;;;25.60;nan;98978.03;4971466;28;19918;-77
2022/06/08 11:13:22;;;;;;;;;;;;;;;25.69;nan;98976.50;4969945;28;19922;-76
2022/06/08 11:15:53;;;;;;;;;;;;;;;25.88;nan;98968.03;4960468;28;20401;-78
2022/06/08 11:18:21;;;;;;;;;;;;;;;25.88;nan;98968.84;4970328;28;20330;-76
2022/06/08 11:20:52;;;;;;;;;;;;;;;25.86;nan;98964.78;4961856;28;19962;-77
2022/06/08 11:23:20;;;;;;;;;;;;;;;25.86;nan;98962.09;4975520;28;19925;-77
2022/06/08 11:25:48;;;;;;;;;;;;;;;25.85;nan;98958.56;4962622;28;19965;-76
2022/06/08 11:28:28;;;;;;;;;;;;;;;26.02;nan;98959.25;4963875;28;19918;-76
2022/06/08 11:30:54;;;;;;;;;;;;;;;26.18;nan;98956.69;4960300;28;19923;-78
2022/06/08 11:33:20;;;;;;;;;;;;;;;26.21;nan;98957.00;4960329;28;20381;-75
2022/06/08 11:35:54;;;;;;;;;;;;;;;26.21;nan;98950.75;4960077;28;19918;-76
2022/06/08 11:38:21;;;;;;;;;;;;;;;26.23;nan;98949.44;4962759;28;20426;-80
2022/06/08 11:40:46;;;;;;;;;;;;;;;26.26;nan;98957.06;4963713;28;19918;-81
2022/06/08 11:43:15;;;;;;;;;;;;;;;26.26;nan;98959.75;4969711;28;20009;-83
2022/06/08 11:45:44;;;;;;;;;;;;;;;26.25;nan;98955.44;4978869;28;19968;-82
2022/06/08 11:48:13;;;;;;;;;;;;;;;26.23;nan;98948.59;4981696;28;19945;-79
2022/06/08 11:50:44;;;;;;;;;;;;;;;26.25;nan;98950.00;4963427;28;20381;-81
2022/06/08 11:53:20;;;;;;;;;;;;;;;26.29;nan;98940.31;4960883;28;19953;-77
2022/06/08 11:56:04;;;;;;;;;;;;;;;26.32;nan;98937.09;4960667;28;20093;-78
2022/06/08 11:58:31;;;;;;;;;;;;;;;26.25;nan;98933.78;4962034;28;19965;-80
2022/06/08 12:01:01;;;;;;;;;;;;;;;26.25;nan;98939.19;4960001;28;20336;-80
2022/06/08 12:03:30;;;;;;;;;;;;;;;26.25;nan;98936.50;4961167;28;19918;-79
2022/06/08 12:06:04;;;;;;;;;;;;;;;26.25;nan;98936.50;4960993;28;19918;-80
2022/06/08 12:08:42;;;;;;;;;;;;;;;26.26;nan;98930.00;4992189;28;20386;-81
2022/06/08 12:11:10;;;;;;;;;;;;;;;26.24;nan;98926.75;4962046;28;19937;-81
2022/06/08 12:13:35;;;;;;;;;;;;;;;26.26;nan;98927.31;4960165;28;19965;-80
2022/06/08 12:16:19;;;;;;;;;;;;;;;26.34;nan;98926.00;4966592;28;19961;-79
2022/06/08 12:18:53;;;;;;;;;;;;;;;26.38;nan;98924.41;4967954;28;19930;-80
2022/06/08 12:21:19;;;;;;;;;;;;;;;26.37;nan;98929.00;4963434;28;19926;-82
2022/06/08 12:23:56;;;;;;;;;;;;;;;26.39;nan;98921.44;4963843;28;19951;-82
2022/06/08 12:26:23;;;;;;;;;;;;;;;26.31;nan;98924.63;4965678;28;19997;-81
2022/06/08 12:29:04;;;;;;;;;;;;;;;26.24;nan;98924.03;4964380;28;19976;-81
2022/06/08 12:31:31;;;;;;;;;;;;;;;26.21;nan;98919.13;4962418;28;19965;-83
2022/06/08 12:33:57;;;;;;;;;;;;;;;26.22;nan;98918.03;4965234;28;19918;-76
2022/06/08 12:36:31;;;;;;;;;;;;;;;26.26;nan;98915.69;4976886;28;20402;-76
2022/06/08 12:39:09;;;;;;;;;;;;;;;26.33;nan;98914.34;4967735;28;19918;-77
2022/06/08 12:41:39;;;;;;;;;;;;;;;26.37;nan;98904.66;4966082;28;19926;-77
2022/06/08 12:44:07;;;;;;;;;;;;;;;26.36;nan;98900.31;4962225;28;20050;-77
2022/06/08 12:46:35;;;;;;;;;;;;;;;26.29;nan;98894.31;4962388;28;19918;-75
2022/06/08 12:49:01;;;;;;;;;;;;;;;26.28;nan;98892.69;4960195;28;19922;-75
2022/06/08 12:51:29;;;;;;;;;;;;;;;26.13;nan;98895.25;4979521;28;19918;-78
2022/06/08 12:53:57;;;;;;;;;;;;;;;26.06;nan;98894.66;4958398;28;19926;-79
2022/06/08 12:56:22;;;;;;;;;;;;;;;26.07;nan;98888.19;4963775;28;20326;-77
2022/06/08 12:58:51;;;;;;;;;;;;;;;26.08;nan;98887.13;4962853;28;19922;-77
2022/06/08 13:01:18;;;;;;;;;;;;;;;26.09;nan;98877.94;4969204;28;19925;-77
2022/06/08 13:03:44;;;;;;;;;;;;;;;26.08;nan;98881.72;4971778;28;19925;-77
2022/06/08 13:06:10;;;;;;;;;;;;;;;26.06;nan;98881.16;4971627;28;19913;-77
2022/06/08 13:08:37;;;;;;;;;;;;;;;26.06;nan;98867.63;4968241;28;19921;-78
2022/06/08 13:11:05;;;;;;;;;;;;;;;25.99;nan;98867.03;4972331;28;19914;-76
2022/06/08 13:13:32;;;;;;;;;;;;;;;25.94;nan;98875.09;4987056;28;19918;-75
2022/06/08 13:16:00;;;;;;;;;;;;;;;25.94;nan;98878.63;4961903;28;19918;-77
2022/06/08 13:18:28;;;;;;;;;;;;;;;25.94;nan;98875.09;4960787;28;20234;-76
2022/06/08 13:20:55;;;;;;;;;;;;;;;25.93;nan;98874.28;4976555;28;19961;-78
2022/06/08 13:23:21;;;;;;;;;;;;;;;25.93;nan;98871.59;4959958;28;20722;-76
2022/06/08 13:25:47;;;;;;;;;;;;;;;25.91;nan;98860.25;4963418;28;19929;-76
2022/06/08 13:28:26;;;;;;;;;;;;;;;25.88;nan;98855.34;4967342;28;19939;-74
2022/06/08 13:30:52;;;;;;;;;;;;;;;25.98;nan;98849.19;4968089;28;19918;-76
2022/06/08 13:36:16;;;;;;;;;;;;;;;26.39;nan;98829.47;4971076;28;19953;-79